Time;durP1;ratioP1;P1;durP2;ratioP2;P2;SDS_P1;SDS_P2;PMS_P1;PMS_P2;Temp;Humidity;BMP_temperature;BMP_pressure;BME280_temperature;BME280_humidity;BME280_pressure;Samples;Min_cycle;Max_cycle;Signal;HPM_P1;HPM_P2
2023/04/15 00:00:45;;;;;;;;;;;7.50;78.40;;;;;;4078942;29;20332;-88
2023/04/15 00:02:47;;;;;;;;;;;7.40;79.20;;;;;;4074303;29;19967;-87
2023/04/15 00:05:07;;;;;;;;;;;7.50;79.20;;;;;;4081840;29;19918;-87
2023/04/15 00:07:28;;;;;;;;;;;7.40;79.10;;;;;;4076756;29;19923;-87
2023/04/15 00:09:49;;;;;;;;;;;7.40;79.50;;;;;;4079385;29;20272;-87
2023/04/15 00:12:10;;;;;;;;;;;7.50;79.80;;;;;;4077274;29;20673;-88
2023/04/15 00:14:30;;;;;;;;;;;7.50;79.40;;;;;;4079287;29;20262;-88
2023/04/15 00:16:54;;;;;;;;;;;7.50;79.90;;;;;;4078936;29;19914;-88
2023/04/15 00:19:15;;;;;;;;;;;7.50;80.10;;;;;;4081547;29;20341;-89
2023/04/15 00:21:36;;;;;;;;;;;7.40;80.30;;;;;;4080460;29;19923;-88
2023/04/15 00:23:37;;;;;;;;;;;7.40;80.40;;;;;;4081270;29;19954;-88
2023/04/15 00:25:38;;;;;;;;;;;7.40;80.60;;;;;;4078737;29;19919;-88
2023/04/15 00:27:39;;;;;;;;;;;7.40;80.40;;;;;;4064824;29;20313;-88
2023/04/15 00:29:40;;;;;;;;;;;7.50;80.40;;;;;;4092778;28;20317;-88
2023/04/15 00:31:42;;;;;;;;;;;7.40;80.20;;;;;;4061168;29;19918;-87
2023/04/15 00:33:45;;;;;;;;;;;7.40;80.40;;;;;;4073656;29;19970;-88
2023/04/15 00:35:46;;;;;;;;;;;7.40;80.70;;;;;;4080724;29;19915;-88
2023/04/15 00:37:51;;;;;;;;;;;7.40;80.60;;;;;;4084640;29;19910;-88
2023/04/15 00:39:52;;;;;;;;;;;7.50;80.70;;;;;;4079626;29;20002;-87
2023/04/15 00:41:54;;;;;;;;;;;7.40;80.50;;;;;;4066078;29;19915;-88
2023/04/15 00:44:15;;;;;;;;;;;7.40;80.60;;;;;;4084405;29;19918;-87
2023/04/15 00:46:37;;;;;;;;;;;7.40;81.20;;;;;;4079891;29;19922;-88
2023/04/15 00:48:57;;;;;;;;;;;7.50;80.10;;;;;;4087317;28;20135;-88
2023/04/15 00:51:18;;;;;;;;;;;7.50;80.10;;;;;;4085884;28;20086;-88
2023/04/15 00:53:19;;;;;;;;;;;7.40;80.40;;;;;;4080113;28;19910;-88
2023/04/15 00:55:20;;;;;;;;;;;7.50;80.10;;;;;;4065523;29;20046;-88
2023/04/15 00:57:24;;;;;;;;;;;7.50;80.00;;;;;;4096665;28;19911;-88
2023/04/15 00:59:26;;;;;;;;;;;7.50;80.10;;;;;;4085816;29;19922;-89
2023/04/15 01:01:27;;;;;;;;;;;7.60;80.20;;;;;;4078106;29;19914;-86
2023/04/15 01:03:28;;;;;;;;;;;7.50;79.80;;;;;;4079754;29;19950;-87
2023/04/15 01:05:30;;;;;;;;;;;7.40;80.00;;;;;;4082950;29;19914;-85
2023/04/15 01:07:30;;;;;;;;;;;7.60;80.00;;;;;;4085920;29;19918;-88
2023/04/15 01:09:32;;;;;;;;;;;7.50;80.10;;;;;;4061543;29;19950;-87
2023/04/15 01:11:33;;;;;;;;;;;7.50;80.10;;;;;;4078808;29;19915;-87
2023/04/15 01:13:39;;;;;;;;;;;7.50;80.10;;;;;;4082611;29;20361;-87
2023/04/15 01:15:40;;;;;;;;;;;7.50;80.30;;;;;;4077644;29;19998;-87
2023/04/15 01:17:40;;;;;;;;;;;7.50;80.50;;;;;;4067549;29;19919;-87
2023/04/15 01:19:41;;;;;;;;;;;7.50;80.40;;;;;;4078139;29;19911;-87
2023/04/15 01:21:52;;;;;;;;;;;7.50;80.20;;;;;;4084158;29;19933;-87
2023/04/15 01:23:55;;;;;;;;;;;7.50;80.00;;;;;;4070004;29;19930;-87
2023/04/15 01:25:57;;;;;;;;;;;7.60;80.00;;;;;;4079893;29;19918;-88
2023/04/15 01:27:58;;;;;;;;;;;7.50;80.10;;;;;;4084869;29;19946;-88
2023/04/15 01:29:59;;;;;;;;;;;7.60;80.20;;;;;;4064002;29;19911;-87
2023/04/15 01:31:59;;;;;;;;;;;7.60;79.90;;;;;;4093480;28;19938;-87
2023/04/15 01:34:01;;;;;;;;;;;7.60;80.00;;;;;;4084137;29;19982;-88
2023/04/15 01:36:02;;;;;;;;;;;7.60;80.00;;;;;;4082191;29;19919;-86
2023/04/15 01:41:09;;;;;;;;;;;7.50;79.80;;;;;;4081612;29;19985;-86
2023/04/15 01:46:37;;;;;;;;;;;7.50;79.30;;;;;;4078637;29;19983;-87
2023/04/15 01:49:10;;;;;;;;;;;7.50;79.60;;;;;;4040573;29;19971;-87
2023/04/15 01:51:11;;;;;;;;;;;7.50;79.40;;;;;;4060924;29;19914;-87
2023/04/15 01:53:12;;;;;;;;;;;7.50;79.40;;;;;;4069713;29;19911;-85
2023/04/15 01:55:13;;;;;;;;;;;7.50;79.60;;;;;;4083737;29;19966;-86
2023/04/15 01:57:13;;;;;;;;;;;7.50;79.60;;;;;;4083328;29;19915;-86
2023/04/15 01:59:14;;;;;;;;;;;7.60;79.50;;;;;;4071816;29;19918;-86
2023/04/15 02:01:15;;;;;;;;;;;7.60;79.60;;;;;;4080708;29;20381;-85
2023/04/15 02:03:16;;;;;;;;;;;7.60;79.90;;;;;;4082250;29;19942;-86
2023/04/15 02:05:17;;;;;;;;;;;7.60;80.10;;;;;;4086832;29;19922;-87
2023/04/15 02:07:18;;;;;;;;;;;7.60;79.90;;;;;;4083386;29;19925;-87
2023/04/15 02:09:19;;;;;;;;;;;7.70;79.70;;;;;;4085605;29;19926;-87
2023/04/15 02:11:23;;;;;;;;;;;7.50;79.50;;;;;;4079980;29;19991;-86
2023/04/15 02:13:26;;;;;;;;;;;7.60;79.50;;;;;;4062189;29;20413;-86
2023/04/15 02:15:27;;;;;;;;;;;7.50;79.80;;;;;;4067101;29;19943;-87
2023/04/15 02:17:27;;;;;;;;;;;7.60;79.70;;;;;;4083126;29;19915;-86
2023/04/15 02:19:28;;;;;;;;;;;7.60;79.60;;;;;;4067302;29;19918;-87
2023/04/15 02:21:29;;;;;;;;;;;7.60;79.90;;;;;;4083148;29;19907;-87
2023/04/15 02:23:29;;;;;;;;;;;7.70;80.10;;;;;;4060177;29;19912;-87
2023/04/15 02:25:30;;;;;;;;;;;7.60;79.90;;;;;;4079380;29;20002;-87
2023/04/15 02:27:31;;;;;;;;;;;7.50;80.00;;;;;;4079754;29;19978;-86
2023/04/15 02:29:32;;;;;;;;;;;7.50;80.10;;;;;;4081701;29;19943;-86
2023/04/15 02:31:35;;;;;;;;;;;7.60;80.30;;;;;;4093117;29;19942;-86
2023/04/15 02:33:36;;;;;;;;;;;7.60;80.10;;;;;;4082738;29;19973;-86
2023/04/15 02:35:40;;;;;;;;;;;7.60;80.10;;;;;;4097984;28;20486;-87
2023/04/15 02:37:44;;;;;;;;;;;7.60;80.30;;;;;;4080100;29;19959;-86
2023/04/15 02:39:45;;;;;;;;;;;7.50;80.70;;;;;;4096283;28;19910;-87
2023/04/15 02:41:50;;;;;;;;;;;7.50;81.00;;;;;;4079265;29;20369;-88
2023/04/15 02:43:51;;;;;;;;;;;7.50;81.50;;;;;;4066375;29;19922;-86
2023/04/15 02:45:52;;;;;;;;;;;7.60;80.90;;;;;;4068606;29;20338;-87
2023/04/15 02:47:53;;;;;;;;;;;7.50;81.10;;;;;;4087642;28;19919;-86
2023/04/15 02:49:53;;;;;;;;;;;7.60;82.00;;;;;;4065007;29;20005;-86
2023/04/15 02:51:54;;;;;;;;;;;7.60;81.30;;;;;;4062426;29;20765;-86
2023/04/15 02:53:55;;;;;;;;;;;7.50;81.60;;;;;;4078993;29;19915;-85
2023/04/15 02:55:56;;;;;;;;;;;7.50;81.50;;;;;;4092117;28;20649;-86
2023/04/15 02:58:00;;;;;;;;;;;7.50;81.60;;;;;;4067372;29;19914;-87
2023/04/15 03:00:00;;;;;;;;;;;7.60;81.80;;;;;;4080647;29;19911;-87
2023/04/15 03:02:01;;;;;;;;;;;7.40;82.00;;;;;;4077011;29;20441;-85
2023/04/15 03:04:03;;;;;;;;;;;7.50;82.10;;;;;;4076073;29;20783;-86
2023/04/15 03:06:04;;;;;;;;;;;7.40;82.10;;;;;;4074409;29;19923;-86
2023/04/15 03:08:05;;;;;;;;;;;7.40;82.40;;;;;;4066697;29;19966;-87
2023/04/15 03:10:06;;;;;;;;;;;7.50;82.30;;;;;;4084505;29;20018;-87
2023/04/15 03:12:07;;;;;;;;;;;7.40;82.20;;;;;;4079821;29;19918;-87
2023/04/15 03:14:07;;;;;;;;;;;7.40;82.30;;;;;;4065694;29;19929;-86
2023/04/15 03:16:08;;;;;;;;;;;7.50;82.50;;;;;;4079275;29;19914;-87
2023/04/15 03:18:09;;;;;;;;;;;7.60;82.40;;;;;;4063658;29;20413;-88
2023/04/15 03:20:10;;;;;;;;;;;7.60;82.10;;;;;;4080461;29;19914;-87
2023/04/15 03:22:13;;;;;;;;;;;7.50;82.00;;;;;;4090039;28;20001;-86
2023/04/15 03:24:14;;;;;;;;;;;7.60;82.20;;;;;;4077552;28;20463;-87
2023/04/15 03:26:30;;;;;;;;;;;7.50;82.20;;;;;;4081180;29;19970;-86
2023/04/15 03:28:32;;;;;;;;;;;7.50;82.10;;;;;;4083259;29;19926;-86
2023/04/15 03:30:32;;;;;;;;;;;7.60;82.20;;;;;;4083631;29;19929;-87
2023/04/15 03:32:35;;;;;;;;;;;7.60;82.40;;;;;;4081945;29;20341;-86
2023/04/15 03:34:36;;;;;;;;;;;7.60;82.30;;;;;;4074515;29;19899;-87
2023/04/15 03:36:37;;;;;;;;;;;7.60;82.30;;;;;;4094095;28;20054;-87
2023/04/15 03:38:37;;;;;;;;;;;7.60;82.40;;;;;;4070150;29;20552;-86
2023/04/15 03:40:40;;;;;;;;;;;7.60;82.30;;;;;;4083526;29;19915;-87
2023/04/15 03:42:40;;;;;;;;;;;7.60;82.10;;;;;;4065740;29;19958;-87
2023/04/15 03:44:41;;;;;;;;;;;7.60;82.30;;;;;;4074406;29;19911;-87
2023/04/15 03:46:45;;;;;;;;;;;7.70;82.30;;;;;;4075931;29;20369;-87
2023/04/15 03:48:46;;;;;;;;;;;7.60;82.10;;;;;;4092452;28;19915;-87
2023/04/15 03:50:47;;;;;;;;;;;7.70;81.90;;;;;;4080590;29;19911;-86
2023/04/15 03:52:47;;;;;;;;;;;7.70;81.80;;;;;;4084175;23;19927;-87
2023/04/15 03:54:48;;;;;;;;;;;7.70;81.70;;;;;;4053890;29;19919;-87
2023/04/15 03:56:49;;;;;;;;;;;7.60;81.60;;;;;;4054602;29;19915;-86
2023/04/15 03:58:50;;;;;;;;;;;7.60;81.60;;;;;;4068463;29;19915;-86
2023/04/15 04:00:51;;;;;;;;;;;7.60;81.30;;;;;;4071054;29;19954;-87
2023/04/15 04:02:51;;;;;;;;;;;7.70;81.20;;;;;;4066651;29;19911;-87
2023/04/15 04:04:52;;;;;;;;;;;7.70;81.10;;;;;;4053237;29;19996;-87
2023/04/15 04:06:53;;;;;;;;;;;7.70;81.30;;;;;;4051732;29;19917;-87
2023/04/15 04:08:56;;;;;;;;;;;7.60;81.10;;;;;;4073453;29;20006;-87
2023/04/15 04:10:57;;;;;;;;;;;7.70;80.90;;;;;;4068229;29;19911;-87
2023/04/15 04:12:58;;;;;;;;;;;7.70;80.80;;;;;;4065280;29;19978;-86
2023/04/15 04:14:59;;;;;;;;;;;7.60;80.70;;;;;;4051315;29;20011;-85
2023/04/15 04:17:00;;;;;;;;;;;7.60;80.70;;;;;;4063634;29;19911;-86
2023/04/15 04:19:00;;;;;;;;;;;7.70;80.80;;;;;;4059001;29;20380;-86
2023/04/15 04:21:02;;;;;;;;;;;7.80;80.90;;;;;;4068968;29;19915;-85
2023/04/15 04:23:02;;;;;;;;;;;7.70;81.10;;;;;;4052758;29;19915;-87
2023/04/15 04:25:03;;;;;;;;;;;7.80;81.20;;;;;;4068294;29;20139;-86
2023/04/15 04:27:11;;;;;;;;;;;7.70;81.20;;;;;;4062003;29;20444;-86
2023/04/15 04:29:18;;;;;;;;;;;7.80;81.30;;;;;;4067246;29;19959;-87
2023/04/15 04:31:18;;;;;;;;;;;7.80;81.20;;;;;;4067765;29;19994;-86
2023/04/15 04:33:39;;;;;;;;;;;7.80;81.20;;;;;;4075186;29;19910;-86
2023/04/15 04:36:00;;;;;;;;;;;7.70;81.10;;;;;;4071844;29;19930;-86
2023/04/15 04:38:20;;;;;;;;;;;7.70;81.10;;;;;;4063702;29;19911;-85
2023/04/15 04:43:53;;;;;;;;;;;7.80;81.20;;;;;;4058570;29;19915;-86
2023/04/15 04:46:14;;;;;;;;;;;7.70;81.20;;;;;;4060017;29;19907;-85
2023/04/15 04:48:35;;;;;;;;;;;7.70;81.10;;;;;;4076436;29;19919;-86
2023/04/15 04:50:55;;;;;;;;;;;7.80;81.10;;;;;;4064505;29;19915;-86
2023/04/15 04:53:16;;;;;;;;;;;7.80;81.20;;;;;;4063758;29;19919;-86
2023/04/15 04:55:37;;;;;;;;;;;7.80;81.30;;;;;;4061900;29;19912;-85
2023/04/15 04:57:58;;;;;;;;;;;7.90;81.20;;;;;;4060194;29;20010;-86
2023/04/15 04:59:58;;;;;;;;;;;7.80;81.50;;;;;;4052377;29;19907;-86
2023/04/15 05:01:59;;;;;;;;;;;7.70;81.60;;;;;;4066895;29;19954;-86
2023/04/15 05:04:00;;;;;;;;;;;7.80;82.30;;;;;;4060783;29;20342;-86
2023/04/15 05:06:06;;;;;;;;;;;7.80;81.90;;;;;;4066468;29;20289;-85
2023/04/15 05:08:06;;;;;;;;;;;7.80;81.90;;;;;;4055381;29;19923;-85
2023/04/15 05:10:07;;;;;;;;;;;7.70;81.90;;;;;;4066621;29;20436;-86
2023/04/15 05:12:13;;;;;;;;;;;7.80;82.00;;;;;;4066258;29;19918;-86
2023/04/15 05:14:14;;;;;;;;;;;7.80;82.40;;;;;;4050810;29;19974;-86
2023/04/15 05:16:15;;;;;;;;;;;7.80;82.40;;;;;;4068094;29;19918;-86
2023/04/15 05:18:16;;;;;;;;;;;7.80;82.30;;;;;;4077317;29;19912;-86
2023/04/15 05:20:17;;;;;;;;;;;7.90;82.40;;;;;;4061789;29;19922;-86
2023/04/15 05:22:18;;;;;;;;;;;7.80;82.10;;;;;;4062311;29;20381;-85
2023/04/15 05:24:18;;;;;;;;;;;7.80;82.20;;;;;;4078779;29;20388;-86
2023/04/15 05:26:20;;;;;;;;;;;7.90;82.60;;;;;;4052290;29;19994;-87
2023/04/15 05:28:21;;;;;;;;;;;7.90;82.40;;;;;;4064634;29;20376;-86
2023/04/15 05:30:22;;;;;;;;;;;8.00;82.30;;;;;;4053978;29;19915;-86
2023/04/15 05:32:25;;;;;;;;;;;7.90;82.60;;;;;;4064145;29;19908;-88
2023/04/15 05:34:26;;;;;;;;;;;7.90;82.40;;;;;;4079618;29;20099;-87
2023/04/15 05:36:27;;;;;;;;;;;7.90;82.40;;;;;;4049706;29;20405;-86
2023/04/15 05:38:28;;;;;;;;;;;8.00;82.30;;;;;;4057133;29;20262;-88
2023/04/15 05:40:29;;;;;;;;;;;8.00;82.30;;;;;;4044227;29;19943;-86
2023/04/15 05:42:30;;;;;;;;;;;8.00;82.20;;;;;;4060086;29;20007;-88
2023/04/15 05:44:30;;;;;;;;;;;7.90;82.50;;;;;;4059451;29;19919;-87
2023/04/15 05:46:31;;;;;;;;;;;8.00;82.30;;;;;;4061622;29;19974;-87
2023/04/15 05:48:32;;;;;;;;;;;7.90;82.50;;;;;;4071582;29;19918;-88
2023/04/15 05:50:35;;;;;;;;;;;8.00;82.30;;;;;;4063729;29;19915;-87
2023/04/15 05:52:36;;;;;;;;;;;7.90;83.00;;;;;;4045685;29;19915;-88
2023/04/15 05:54:36;;;;;;;;;;;8.00;82.40;;;;;;4066082;29;20021;-88
2023/04/15 05:56:37;;;;;;;;;;;8.00;83.20;;;;;;4061478;29;19911;-87
2023/04/15 05:58:38;;;;;;;;;;;8.10;82.60;;;;;;4065315;29;19978;-86
2023/04/15 06:00:39;;;;;;;;;;;8.00;82.40;;;;;;4065186;29;19978;-87
2023/04/15 06:02:40;;;;;;;;;;;8.10;82.30;;;;;;4076029;29;19922;-87
2023/04/15 06:04:44;;;;;;;;;;;8.10;82.10;;;;;;4066438;29;20039;-87
2023/04/15 06:06:45;;;;;;;;;;;8.10;82.20;;;;;;4043822;29;20309;-88
2023/04/15 06:08:46;;;;;;;;;;;8.10;82.10;;;;;;4059889;29;19946;-87
2023/04/15 06:10:47;;;;;;;;;;;8.10;82.20;;;;;;4062972;29;19962;-87
2023/04/15 06:12:48;;;;;;;;;;;8.10;82.20;;;;;;4077278;29;19915;-88
2023/04/15 06:14:49;;;;;;;;;;;8.10;82.20;;;;;;4061599;29;19930;-88
2023/04/15 06:16:50;;;;;;;;;;;8.10;82.40;;;;;;4074864;29;20373;-88
2023/04/15 06:18:50;;;;;;;;;;;8.10;82.60;;;;;;4059541;29;19911;-88
2023/04/15 06:20:51;;;;;;;;;;;8.20;82.80;;;;;;4064811;29;19950;-87
2023/04/15 06:22:52;;;;;;;;;;;8.10;82.70;;;;;;4058959;29;19974;-88
2023/04/15 06:24:55;;;;;;;;;;;8.10;82.80;;;;;;4063812;29;19920;-87
2023/04/15 06:26:56;;;;;;;;;;;8.20;82.70;;;;;;4075408;29;19962;-88
2023/04/15 06:28:57;;;;;;;;;;;8.20;83.50;;;;;;4076523;29;19914;-87
2023/04/15 06:30:58;;;;;;;;;;;8.20;83.60;;;;;;4079062;29;20006;-88
2023/04/15 06:33:19;;;;;;;;;;;8.20;83.50;;;;;;4061193;29;19919;-87
2023/04/15 06:35:39;;;;;;;;;;;8.20;83.40;;;;;;4057557;29;20007;-88
2023/04/15 06:38:00;;;;;;;;;;;8.20;83.40;;;;;;4061536;29;19954;-88
2023/04/15 06:40:21;;;;;;;;;;;8.20;83.20;;;;;;4060552;29;19914;-87
2023/04/15 06:42:41;;;;;;;;;;;8.30;83.30;;;;;;4061800;29;19915;-89
2023/04/15 06:45:02;;;;;;;;;;;8.30;83.40;;;;;;4061047;29;19911;-88
2023/04/15 06:47:23;;;;;;;;;;;8.20;83.70;;;;;;4061054;29;19915;-87
2023/04/15 06:49:24;;;;;;;;;;;8.20;83.90;;;;;;4058670;29;20418;-88
2023/04/15 06:51:24;;;;;;;;;;;8.30;83.90;;;;;;4062903;29;19921;-87
2023/04/15 06:53:26;;;;;;;;;;;8.20;83.90;;;;;;4061127;29;20021;-87
2023/04/15 06:55:27;;;;;;;;;;;8.30;84.10;;;;;;4060539;29;19966;-88
2023/04/15 06:57:27;;;;;;;;;;;8.30;84.10;;;;;;4057698;29;19911;-87
2023/04/15 06:59:28;;;;;;;;;;;8.30;84.10;;;;;;4064963;29;19914;-88
2023/04/15 07:01:29;;;;;;;;;;;8.30;84.10;;;;;;4071035;29;19918;-87
2023/04/15 07:03:30;;;;;;;;;;;8.40;84.40;;;;;;4060487;29;19910;-87
2023/04/15 07:05:31;;;;;;;;;;;8.30;84.50;;;;;;4060278;29;19973;-88
2023/04/15 07:07:32;;;;;;;;;;;8.30;84.40;;;;;;4065102;29;19915;-87
2023/04/15 07:09:33;;;;;;;;;;;8.40;84.40;;;;;;4075406;29;19915;-87
2023/04/15 07:11:33;;;;;;;;;;;8.40;84.40;;;;;;4045270;29;20361;-87
2023/04/15 07:13:34;;;;;;;;;;;8.30;83.70;;;;;;4062475;29;19923;-88
2023/04/15 07:15:35;;;;;;;;;;;8.50;83.80;;;;;;4063047;29;19911;-87
2023/04/15 07:17:35;;;;;;;;;;;8.50;83.80;;;;;;4089397;28;19974;-89
2023/04/15 07:19:36;;;;;;;;;;;8.50;83.80;;;;;;4079817;28;19903;-89
2023/04/15 07:21:37;;;;;;;;;;;8.50;83.60;;;;;;4061976;29;19953;-88
2023/04/15 07:23:37;;;;;;;;;;;8.60;83.80;;;;;;4051109;29;19911;-89
2023/04/15 07:25:38;;;;;;;;;;;8.50;84.10;;;;;;4079206;29;19925;-88
2023/04/15 07:27:40;;;;;;;;;;;8.40;84.20;;;;;;4066464;29;19911;-88
2023/04/15 07:29:41;;;;;;;;;;;8.60;84.20;;;;;;4058056;29;19950;-88
2023/04/15 07:31:41;;;;;;;;;;;8.60;84.20;;;;;;4062258;29;19939;-88
2023/04/15 07:33:42;;;;;;;;;;;8.60;84.40;;;;;;4067526;29;19915;-87
2023/04/15 07:35:42;;;;;;;;;;;8.50;84.40;;;;;;4079679;29;19919;-88
2023/04/15 07:37:43;;;;;;;;;;;8.50;84.40;;;;;;4061384;29;19915;-87
2023/04/15 07:39:43;;;;;;;;;;;8.50;84.40;;;;;;4048027;29;19990;-87
2023/04/15 07:41:45;;;;;;;;;;;8.50;84.60;;;;;;4063258;29;20330;-87
2023/04/15 07:43:47;;;;;;;;;;;8.40;84.20;;;;;;4062670;29;19938;-88
2023/04/15 07:45:48;;;;;;;;;;;8.50;84.60;;;;;;4045769;29;20331;-88
2023/04/15 07:47:49;;;;;;;;;;;8.50;84.60;;;;;;4062432;29;19989;-88
2023/04/15 07:49:50;;;;;;;;;;;8.40;84.40;;;;;;4062676;29;19943;-88
2023/04/15 07:51:51;;;;;;;;;;;8.50;84.80;;;;;;4077350;29;20334;-88
2023/04/15 07:53:51;;;;;;;;;;;8.50;84.80;;;;;;4045535;29;20103;-87
2023/04/15 07:55:52;;;;;;;;;;;8.60;84.80;;;;;;4075092;29;20230;-88
2023/04/15 07:57:52;;;;;;;;;;;8.60;84.80;;;;;;4063460;29;19966;-89
2023/04/15 07:59:53;;;;;;;;;;;8.70;85.00;;;;;;4055202;29;20476;-88
2023/04/15 08:01:54;;;;;;;;;;;8.70;84.70;;;;;;4045531;29;19938;-87
2023/04/15 08:03:54;;;;;;;;;;;8.70;84.60;;;;;;4065141;29;20523;-87
2023/04/15 08:05:55;;;;;;;;;;;8.70;84.70;;;;;;4059534;29;19920;-86
2023/04/15 08:07:56;;;;;;;;;;;8.70;84.40;;;;;;4046696;29;20399;-89
2023/04/15 08:09:56;;;;;;;;;;;8.80;84.80;;;;;;4077432;29;20308;-88
2023/04/15 08:11:57;;;;;;;;;;;8.90;84.80;;;;;;4062066;29;20407;-88
2023/04/15 08:13:58;;;;;;;;;;;8.80;84.60;;;;;;4061080;29;19915;-88
2023/04/15 08:16:18;;;;;;;;;;;9.00;84.80;;;;;;4060433;29;19925;-88
2023/04/15 08:18:19;;;;;;;;;;;8.90;84.70;;;;;;4069974;29;19982;-88
2023/04/15 08:20:40;;;;;;;;;;;9.00;84.80;;;;;;4064726;29;19931;-88
2023/04/15 08:22:56;;;;;;;;;;;9.00;84.50;;;;;;4076506;29;19981;-88
2023/04/15 08:25:16;;;;;;;;;;;8.90;84.30;;;;;;4063089;29;19934;-87
2023/04/15 08:27:37;;;;;;;;;;;9.00;84.80;;;;;;4060036;29;19915;-88
2023/04/15 08:29:58;;;;;;;;;;;9.00;84.00;;;;;;4069935;29;19911;-89
2023/04/15 08:32:19;;;;;;;;;;;9.00;83.70;;;;;;4064314;29;20002;-88
2023/04/15 08:34:42;;;;;;;;;;;9.10;84.10;;;;;;4063262;29;20179;-88
2023/04/15 08:37:03;;;;;;;;;;;9.00;83.60;;;;;;4060862;29;19915;-88
2023/04/15 08:39:27;;;;;;;;;;;9.10;83.70;;;;;;4064483;29;20436;-88
2023/04/15 08:41:55;;;;;;;;;;;9.00;83.50;;;;;;4061761;29;19919;-88
2023/04/15 08:44:16;;;;;;;;;;;9.00;83.10;;;;;;4059767;29;19919;-88
2023/04/15 08:46:38;;;;;;;;;;;9.00;83.30;;;;;;4064443;29;19930;-88
2023/04/15 08:48:39;;;;;;;;;;;9.10;83.30;;;;;;4072771;29;19923;-88
2023/04/15 08:50:40;;;;;;;;;;;9.00;83.10;;;;;;4078417;29;19938;-88
2023/04/15 08:52:44;;;;;;;;;;;9.00;83.30;;;;;;4074117;29;19923;-89
2023/04/15 08:54:45;;;;;;;;;;;9.00;83.20;;;;;;4063768;29;19926;-89
2023/04/15 08:56:46;;;;;;;;;;;9.00;83.10;;;;;;4070322;29;19915;-89
2023/04/15 08:58:47;;;;;;;;;;;9.00;83.00;;;;;;4067047;29;19916;-89
2023/04/15 09:00:48;;;;;;;;;;;9.00;83.00;;;;;;4067938;29;19915;-88
2023/04/15 09:02:48;;;;;;;;;;;9.00;83.20;;;;;;4070032;29;19921;-87
2023/04/15 09:04:49;;;;;;;;;;;9.00;83.00;;;;;;4070577;29;19919;-88
2023/04/15 09:07:12;;;;;;;;;;;8.90;82.80;;;;;;4059564;29;19911;-88
2023/04/15 09:12:16;;;;;;;;;;;8.90;82.70;;;;;;4059914;29;19922;-87
2023/04/15 09:14:39;;;;;;;;;;;9.00;82.90;;;;;;4063071;29;19919;-88
2023/04/15 09:17:03;;;;;;;;;;;9.00;83.10;;;;;;4066044;29;19911;-88
2023/04/15 09:19:24;;;;;;;;;;;9.00;83.10;;;;;;4065745;29;19919;-88
2023/04/15 09:21:46;;;;;;;;;;;9.10;83.40;;;;;;4062662;29;19946;-88
2023/04/15 09:24:06;;;;;;;;;;;9.20;83.30;;;;;;4066855;29;19915;-88
2023/04/15 09:26:31;;;;;;;;;;;9.10;83.30;;;;;;4066501;29;19915;-88
2023/04/15 09:28:52;;;;;;;;;;;9.20;83.30;;;;;;4066768;29;19923;-88
2023/04/15 09:31:15;;;;;;;;;;;9.20;83.30;;;;;;4077572;29;19921;-88
2023/04/15 09:33:52;;;;;;;;;;;9.20;83.20;;;;;;4070948;29;19921;-87
2023/04/15 09:36:13;;;;;;;;;;;9.20;83.70;;;;;;4082899;29;19919;-87
2023/04/15 09:38:17;;;;;;;;;;;9.30;82.90;;;;;;4068881;29;19938;-87
2023/04/15 09:40:33;;;;;;;;;;;9.30;82.80;;;;;;4081655;29;20287;-89
2023/04/15 09:42:34;;;;;;;;;;;9.30;82.80;;;;;;4088791;29;19946;-88
2023/04/15 09:44:35;;;;;;;;;;;9.40;82.90;;;;;;4092034;29;19910;-87
2023/04/15 09:46:40;;;;;;;;;;;9.30;82.60;;;;;;4075967;29;19998;-88
2023/04/15 09:48:40;;;;;;;;;;;9.30;82.30;;;;;;4079445;29;19919;-87
2023/04/15 09:50:47;;;;;;;;;;;9.40;82.40;;;;;;4055549;29;20398;-87
2023/04/15 09:53:10;;;;;;;;;;;9.30;82.30;;;;;;4062885;29;19911;-88
2023/04/15 09:55:13;;;;;;;;;;;9.40;82.20;;;;;;4049783;29;19922;-88
2023/04/15 09:57:35;;;;;;;;;;;9.30;82.30;;;;;;4067469;29;19953;-87
2023/04/15 09:59:38;;;;;;;;;;;9.40;82.50;;;;;;4062407;29;19918;-87
2023/04/15 10:01:41;;;;;;;;;;;9.50;82.80;;;;;;4081567;29;20381;-88
2023/04/15 10:04:02;;;;;;;;;;;9.60;83.30;;;;;;4070303;29;19918;-87
2023/04/15 10:06:25;;;;;;;;;;;9.70;83.50;;;;;;4069191;29;19990;-87
2023/04/15 10:08:48;;;;;;;;;;;9.70;83.00;;;;;;4079795;29;19925;-89
2023/04/15 10:11:09;;;;;;;;;;;9.70;83.30;;;;;;4074657;29;19911;-89
2023/04/15 10:13:35;;;;;;;;;;;9.80;82.80;;;;;;4067819;29;19915;-89
2023/04/15 10:15:57;;;;;;;;;;;10.00;82.60;;;;;;4070880;29;19922;-88
2023/04/15 10:18:19;;;;;;;;;;;10.10;82.40;;;;;;4066719;29;19922;-87
2023/04/15 10:20:40;;;;;;;;;;;10.10;82.80;;;;;;4070924;29;19915;-89
2023/04/15 10:23:03;;;;;;;;;;;10.20;82.60;;;;;;4066088;29;19917;-89
2023/04/15 10:25:25;;;;;;;;;;;10.20;83.30;;;;;;4063186;29;19915;-89
2023/04/15 10:27:47;;;;;;;;;;;10.40;83.20;;;;;;4066217;29;20104;-86
2023/04/15 10:30:11;;;;;;;;;;;10.30;82.80;;;;;;4064108;29;19919;-88
2023/04/15 10:32:32;;;;;;;;;;;10.50;82.30;;;;;;4069943;29;19912;-88
2023/04/15 10:34:53;;;;;;;;;;;10.50;80.80;;;;;;4066116;29;19925;-87
2023/04/15 10:37:19;;;;;;;;;;;10.60;80.50;;;;;;4070825;29;19946;-87
2023/04/15 10:39:40;;;;;;;;;;;10.80;79.80;;;;;;4067565;29;20570;-87
2023/04/15 10:42:28;;;;;;;;;;;10.80;79.60;;;;;;4062450;29;19919;-88
2023/04/15 10:44:53;;;;;;;;;;;10.80;79.40;;;;;;4069543;29;19971;-86
2023/04/15 10:47:17;;;;;;;;;;;11.00;79.40;;;;;;4067274;29;19966;-87
2023/04/15 10:49:51;;;;;;;;;;;11.00;78.70;;;;;;4070653;29;20010;-88
2023/04/15 10:52:13;;;;;;;;;;;11.00;76.90;;;;;;4090429;29;19938;-87
2023/04/15 10:54:23;;;;;;;;;;;11.20;77.10;;;;;;4070767;29;19930;-87
2023/04/15 10:56:24;;;;;;;;;;;11.20;78.30;;;;;;4072468;29;19911;-87
2023/04/15 10:58:25;;;;;;;;;;;11.30;76.50;;;;;;4071715;29;19915;-87
2023/04/15 11:00:34;;;;;;;;;;;11.40;75.70;;;;;;4052735;29;19967;-89
2023/04/15 11:02:39;;;;;;;;;;;11.40;75.40;;;;;;4059807;29;19908;-88
2023/04/15 11:04:58;;;;;;;;;;;11.50;75.00;;;;;;4070001;29;19907;-90
2023/04/15 11:07:06;;;;;;;;;;;11.40;74.30;;;;;;4073922;29;20301;-88
2023/04/15 11:09:08;;;;;;;;;;;11.50;73.60;;;;;;4079977;29;19943;-88
2023/04/15 11:11:09;;;;;;;;;;;11.50;73.00;;;;;;4071270;29;20286;-89
2023/04/15 11:13:32;;;;;;;;;;;11.60;73.20;;;;;;4074707;29;19906;-88
2023/04/15 11:15:57;;;;;;;;;;;11.60;72.60;;;;;;4068299;29;19907;-87
2023/04/15 11:18:18;;;;;;;;;;;11.70;71.90;;;;;;4067735;29;20063;-86
2023/04/15 11:20:40;;;;;;;;;;;11.70;71.70;;;;;;4075736;29;19915;-85
2023/04/15 11:23:04;;;;;;;;;;;11.80;72.30;;;;;;4086570;29;19899;-90
2023/04/15 11:26:07;;;;;;;;;;;;;;;;;;;;;
2023/04/15 11:28:37;;;;;;;;;;;11.60;70.70;;;;;;4065535;29;19930;-87
2023/04/15 11:34:21;;;;;;;;;;;11.80;70.80;;;;;;4065687;29;19953;-92
2023/04/15 11:36:42;;;;;;;;;;;11.80;69.90;;;;;;4073014;29;19907;-90
2023/04/15 11:39:06;;;;;;;;;;;11.80;70.60;;;;;;4073564;29;19907;-88
2023/04/15 11:41:42;;;;;;;;;;;11.90;70.00;;;;;;4069010;29;20010;-88
2023/04/15 11:44:23;;;;;;;;;;;11.80;69.10;;;;;;4113094;23;19929;-92
2023/04/15 11:46:44;;;;;;;;;;;11.90;69.10;;;;;;4089981;28;20249;-89
2023/04/15 11:52:12;;;;;;;;;;;12.10;69.70;;;;;;4099213;28;19913;-87
2023/04/15 11:54:30;;;;;;;;;;;12.30;69.50;;;;;;4076629;29;20845;-88
2023/04/15 11:56:31;;;;;;;;;;;12.30;68.90;;;;;;4083999;29;19918;-88
2023/04/15 11:58:33;;;;;;;;;;;12.40;67.10;;;;;;4099441;28;19918;-89
2023/04/15 12:00:35;;;;;;;;;;;12.40;67.00;;;;;;4097238;28;19911;-86
2023/04/15 12:02:36;;;;;;;;;;;12.50;67.20;;;;;;4082269;29;20436;-89
2023/04/15 12:04:37;;;;;;;;;;;12.50;67.20;;;;;;4084970;28;19910;-86
2023/04/15 12:06:37;;;;;;;;;;;12.60;66.80;;;;;;4082266;29;19942;-88
2023/04/15 12:08:50;;;;;;;;;;;12.70;67.90;;;;;;4077133;29;19923;-87
2023/04/15 12:10:57;;;;;;;;;;;12.80;67.10;;;;;;4084951;29;19926;-91
2023/04/15 12:15:09;;;;;;;;;;;12.90;66.50;;;;;;3812353;26;19969;-86
2023/04/15 12:17:38;;;;;;;;;;;12.90;66.80;;;;;;4090932;28;20381;-87
2023/04/15 12:19:59;;;;;;;;;;;13.00;66.50;;;;;;4082546;29;19925;-86
2023/04/15 12:22:21;;;;;;;;;;;13.10;66.20;;;;;;4092018;28;19914;-89
2023/04/15 12:24:47;;;;;;;;;;;13.10;65.40;;;;;;4073300;29;19950;-86
2023/04/15 12:27:10;;;;;;;;;;;13.20;65.70;;;;;;4076077;29;19914;-87
2023/04/15 12:29:56;;;;;;;;;;;13.20;65.80;;;;;;4063352;29;19978;-86
2023/04/15 12:32:19;;;;;;;;;;;13.30;65.30;;;;;;4062827;29;19965;-88
2023/04/15 12:34:44;;;;;;;;;;;13.30;64.10;;;;;;4073850;28;19899;-88
2023/04/15 12:37:06;;;;;;;;;;;13.30;63.90;;;;;;4079194;29;19915;-85
2023/04/15 12:39:28;;;;;;;;;;;13.20;62.70;;;;;;4063663;29;19911;-85
2023/04/15 12:42:11;;;;;;;;;;;13.20;62.80;;;;;;4068367;29;20094;-84
2023/04/15 12:44:32;;;;;;;;;;;13.20;63.40;;;;;;4065143;29;20038;-86
2023/04/15 12:52:13;;;;;;;;;;;13.20;63.30;;;;;;4059316;29;20461;-83
2023/04/15 12:54:38;;;;;;;;;;;13.10;62.30;;;;;;4062325;29;19920;-86
2023/04/15 12:56:55;;;;;;;;;;;13.20;62.80;;;;;;4059978;29;19919;-87
2023/04/15 12:59:29;;;;;;;;;;;12.90;63.10;;;;;;4062347;29;19911;-88
2023/04/15 13:01:53;;;;;;;;;;;12.90;63.20;;;;;;4067065;29;19919;-87
2023/04/15 13:04:14;;;;;;;;;;;12.90;63.70;;;;;;4067218;29;19925;-88